Tucson, AZ (85705)

11:14 PM MST on August 19, 2014 (GMT -0700)
Prince / Romero CW1919 | Change Station
CLOSE
Current Station
Personal Weather Station
Location: Tucson, AZ
Elevation: 2290 ft
Nearby Weather Stations

Elev 2290 ft 32.28 °N, 111.00 °W | Updated 5 minutes ago

Partly Cloudy
Partly Cloudy
73.2 °F
Feels Like 74 °F
N
4.2
Wind Variable Wind from SSE
Gusts 4.2 mph

Today
High -- | Low -- °F
--% Chance of Precip.
Yesterday
High -- | Low -- °F
Precip. -- in
5:50 AM 7:03 PM
Waning Crescent, 24% visible
Pressure 29.84 in
Visibility 10.0 miles
Clouds Few 17000 ft
Heat Index 74 °F
Dew Point 65 °F
Humidity 75%
Rainfall 0.22 in
Snow Depth Not available.
UV 0 out of 12
Pollen 1.20 out of 12
Air Quality Not available.
Flu Activity Not available.
METAR KDMA 200558Z AUTO 14007KT 10SM FEW170 22/18 A2996 RMK AO2 SLP104 60002 T02220177 10290 20219 $

More Conditions Fewer Conditions

Pressure 29.84 in
Visibility 10.0 miles
Clouds Few 17000 ft
Heat Index 74 °F
Dew Point 65 °F
Humidity 75%
Rainfall 0.22 in
Snow Depth Not available.
UV 0 out of 12
Pollen 1.20 out of 12
Air Quality Not available.
Flu Activity Not available.
METAR KDMA 200558Z AUTO 14007KT 10SM FEW170 22/18 A2996 RMK AO2 SLP104 60002 T02220177 10290 20219 $

More Conditions Fewer Conditions

10-Day Weather Forecast

Almanac

Astronomy

Aug. 19, 2014 Rise Set
Actual Time 5:50 AM MST 7:03 PM MST
Civil Twilight 5:25 AM MST 7:29 PM MST
Nautical Twilight 4:54 AM MST 7:59 PM MST
Astronomical Twilight 4:23 AM MST 8:31 PM MST
Moon 12:51 AM MST (8/19) 2:57 PM MST (8/19)
Length of Visible Light 14h 04m
Length of Day
13h 12m
Tomorrow will be 1m 47s shorter.
Waning Crescent, 24% of the Moon is Illuminated
Aug 20
Waning Crescent
Aug 25
New
Sep 2
First Quarter
Sep 8
Full
Sep 15
Last Quarter

Community

WunderPhotos

Upload Photos

1,745,592 photos uploaded!

Nearby

Snow Depth

Station Depth Elevation
Workman Creek 1 in 6900 ft
Wildcat 0 in 7850 ft
Hannagan Meadows 0 in 9020 ft
Heber 0 in 7640 ft
Beaver Head 15 in 7990 ft

Earthquake Activity

City Distance Mag. Time & Date
Lordsburg, New Mexico 113 miles 2.8 3:33 AM MST
2014-08-13
Minimum magnitude displayed is 2.5.

Coastal Water Temperatures

Place Temperature
No Stations Reporting

Nearby Weather Stations